sensor_id;sensor_type;location;lat;lon;timestamp;pressure;altitude;pressure_sealevel;temperature;humidity
66547;BME280;53400;50.364;14.874;2023-03-20T00:01:13;98721.78;;;7.95;98.88
66547;BME280;53400;50.364;14.874;2023-03-20T00:03:40;98718.75;;;7.92;100.00
66547;BME280;53400;50.364;14.874;2023-03-20T00:06:15;98709.72;;;7.93;99.72
66547;BME280;53400;50.364;14.874;2023-03-20T00:08:42;98705.06;;;7.70;99.89
66547;BME280;53400;50.364;14.874;2023-03-20T00:11:24;98705.47;;;7.37;100.00
66547;BME280;53400;50.364;14.874;2023-03-20T00:13:53;98708.50;;;7.40;100.00
66547;BME280;53400;50.364;14.874;2023-03-20T00:16:19;98707.81;;;7.45;100.00
66547;BME280;53400;50.364;14.874;2023-03-20T00:18:45;98714.47;;;7.54;99.37
66547;BME280;53400;50.364;14.874;2023-03-20T00:21:14;98715.69;;;7.58;99.31
66547;BME280;53400;50.364;14.874;2023-03-20T00:23:41;98721.31;;;7.31;100.00
66547;BME280;53400;50.364;14.874;2023-03-20T00:26:08;98726.19;;;7.34;100.00
66547;BME280;53400;50.364;14.874;2023-03-20T00:28:39;98721.91;;;7.33;100.00
66547;BME280;53400;50.364;14.874;2023-03-20T00:31:14;98717.84;;;7.31;100.00
66547;BME280;53400;50.364;14.874;2023-03-20T00:33:43;98718.28;;;7.28;100.00
66547;BME280;53400;50.364;14.874;2023-03-20T00:36:10;98722.47;;;7.35;100.00
66547;BME280;53400;50.364;14.874;2023-03-20T00:38:35;98721.84;;;7.40;100.00
66547;BME280;53400;50.364;14.874;2023-03-20T00:41:02;98713.44;;;7.73;100.00
66547;BME280;53400;50.364;14.874;2023-03-20T00:43:28;98710.56;;;7.75;100.00
66547;BME280;53400;50.364;14.874;2023-03-20T00:45:54;98721.03;;;7.58;98.55
66547;BME280;53400;50.364;14.874;2023-03-20T00:48:21;98714.03;;;7.57;100.00
66547;BME280;53400;50.364;14.874;2023-03-20T00:50:47;98707.16;;;7.68;98.31
66547;BME280;53400;50.364;14.874;2023-03-20T00:53:14;98702.78;;;7.73;95.07
66547;BME280;53400;50.364;14.874;2023-03-20T00:55:40;98710.34;;;7.58;95.86
66547;BME280;53400;50.364;14.874;2023-03-20T00:58:06;98713.03;;;7.58;96.07
66547;BME280;53400;50.364;14.874;2023-03-20T01:00:37;98709.47;;;7.27;100.00
66547;BME280;53400;50.364;14.874;2023-03-20T01:03:11;98712.88;;;7.34;98.44
66547;BME280;53400;50.364;14.874;2023-03-20T01:05:39;98712.13;;;7.46;100.00
66547;BME280;53400;50.364;14.874;2023-03-20T01:08:11;98716.19;;;7.48;98.18
66547;BME280;53400;50.364;14.874;2023-03-20T01:10:37;98715.28;;;7.54;97.90
66547;BME280;53400;50.364;14.874;2023-03-20T01:13:03;98711.53;;;7.62;100.00
66547;BME280;53400;50.364;14.874;2023-03-20T01:15:31;98715.16;;;7.49;100.00
66547;BME280;53400;50.364;14.874;2023-03-20T01:17:58;98713.69;;;7.53;99.73
66547;BME280;53400;50.364;14.874;2023-03-20T01:20:26;98718.34;;;7.40;100.00
66547;BME280;53400;50.364;14.874;2023-03-20T01:22:54;98724.78;;;7.50;100.00
66547;BME280;53400;50.364;14.874;2023-03-20T01:25:21;98724.34;;;7.53;100.00
66547;BME280;53400;50.364;14.874;2023-03-20T01:27:49;98727.69;;;7.49;99.39
66547;BME280;53400;50.364;14.874;2023-03-20T01:30:19;98718.72;;;7.43;100.00
66547;BME280;53400;50.364;14.874;2023-03-20T01:32:45;98716.59;;;7.52;100.00
66547;BME280;53400;50.364;14.874;2023-03-20T01:35:14;98718.41;;;7.33;100.00
66547;BME280;53400;50.364;14.874;2023-03-20T01:37:41;98721.16;;;7.26;100.00
66547;BME280;53400;50.364;14.874;2023-03-20T01:40:18;98715.09;;;7.38;99.31
66547;BME280;53400;50.364;14.874;2023-03-20T01:42:48;98714.03;;;7.39;96.71
66547;BME280;53400;50.364;14.874;2023-03-20T01:45:16;98712.16;;;7.76;97.44
66547;BME280;53400;50.364;14.874;2023-03-20T01:47:43;98717.47;;;7.46;97.60
66547;BME280;53400;50.364;14.874;2023-03-20T01:50:18;98709.25;;;7.47;100.00
66547;BME280;53400;50.364;14.874;2023-03-20T01:52:47;98709.16;;;7.54;99.75
66547;BME280;53400;50.364;14.874;2023-03-20T01:55:16;98704.88;;;7.53;100.00
66547;BME280;53400;50.364;14.874;2023-03-20T01:57:42;98706.41;;;7.42;100.00
66547;BME280;53400;50.364;14.874;2023-03-20T02:00:11;98707.63;;;7.46;99.99
66547;BME280;53400;50.364;14.874;2023-03-20T02:02:40;98702.22;;;7.53;98.58
66547;BME280;53400;50.364;14.874;2023-03-20T02:05:10;98707.75;;;7.33;100.00
66547;BME280;53400;50.364;14.874;2023-03-20T02:07:38;98696.66;;;7.36;100.00
66547;BME280;53400;50.364;14.874;2023-03-20T02:10:08;98691.63;;;7.09;100.00
66547;BME280;53400;50.364;14.874;2023-03-20T02:12:37;98695.81;;;6.99;100.00
66547;BME280;53400;50.364;14.874;2023-03-20T02:15:05;98709.44;;;7.09;100.00
66547;BME280;53400;50.364;14.874;2023-03-20T02:17:31;98704.44;;;7.19;99.49
66547;BME280;53400;50.364;14.874;2023-03-20T02:20:03;98713.13;;;7.08;99.50
66547;BME280;53400;50.364;14.874;2023-03-20T02:22:51;98704.88;;;7.16;96.98
66547;BME280;53400;50.364;14.874;2023-03-20T02:28:35;98707.09;;;7.19;95.69
66547;BME280;53400;50.364;14.874;2023-03-20T02:31:28;98708.53;;;7.15;95.87
66547;BME280;53400;50.364;14.874;2023-03-20T02:34:18;98700.72;;;7.39;96.80
66547;BME280;53400;50.364;14.874;2023-03-20T02:37:01;98704.59;;;7.24;100.00
66547;BME280;53400;50.364;14.874;2023-03-20T02:39:50;98708.97;;;7.12;100.00
66547;BME280;53400;50.364;14.874;2023-03-20T02:42:27;98712.47;;;6.94;99.51
66547;BME280;53400;50.364;14.874;2023-03-20T02:45:02;98705.19;;;6.83;100.00
66547;BME280;53400;50.364;14.874;2023-03-20T02:47:36;98705.06;;;6.71;100.00
66547;BME280;53400;50.364;14.874;2023-03-20T02:50:12;98702.03;;;6.68;100.00
66547;BME280;53400;50.364;14.874;2023-03-20T02:52:45;98700.41;;;6.66;100.00
66547;BME280;53400;50.364;14.874;2023-03-20T02:55:17;98708.22;;;6.61;100.00
66547;BME280;53400;50.364;14.874;2023-03-20T02:57:51;98699.88;;;6.58;100.00
66547;BME280;53400;50.364;14.874;2023-03-20T03:00:25;98702.19;;;6.48;100.00
66547;BME280;53400;50.364;14.874;2023-03-20T03:02:57;98707.25;;;6.56;100.00
66547;BME280;53400;50.364;14.874;2023-03-20T03:05:31;98699.69;;;6.53;100.00
66547;BME280;53400;50.364;14.874;2023-03-20T03:08:01;98703.72;;;6.62;100.00
66547;BME280;53400;50.364;14.874;2023-03-20T03:10:33;98702.78;;;6.75;100.00
66547;BME280;53400;50.364;14.874;2023-03-20T03:13:02;98699.09;;;6.51;100.00
66547;BME280;53400;50.364;14.874;2023-03-20T03:15:31;98694.13;;;6.61;100.00
66547;BME280;53400;50.364;14.874;2023-03-20T03:18:00;98699.16;;;6.44;100.00
66547;BME280;53400;50.364;14.874;2023-03-20T03:20:29;98694.91;;;6.36;100.00
66547;BME280;53400;50.364;14.874;2023-03-20T03:22:57;98697.16;;;6.39;100.00
66547;BME280;53400;50.364;14.874;2023-03-20T03:25:25;98692.63;;;6.40;100.00
66547;BME280;53400;50.364;14.874;2023-03-20T03:28:00;98704.25;;;6.46;100.00
66547;BME280;53400;50.364;14.874;2023-03-20T03:30:30;98705.88;;;6.47;100.00
66547;BME280;53400;50.364;14.874;2023-03-20T03:33:08;98705.88;;;6.47;100.00
66547;BME280;53400;50.364;14.874;2023-03-20T03:35:37;98703.28;;;6.40;100.00
66547;BME280;53400;50.364;14.874;2023-03-20T03:38:17;98703.72;;;6.37;100.00
66547;BME280;53400;50.364;14.874;2023-03-20T03:40:48;98701.97;;;6.49;100.00
66547;BME280;53400;50.364;14.874;2023-03-20T03:43:25;98692.56;;;6.22;100.00
66547;BME280;53400;50.364;14.874;2023-03-20T03:45:56;98698.25;;;6.25;100.00
66547;BME280;53400;50.364;14.874;2023-03-20T03:48:27;98693.75;;;6.26;100.00
66547;BME280;53400;50.364;14.874;2023-03-20T03:50:58;98688.06;;;6.22;100.00
66547;BME280;53400;50.364;14.874;2023-03-20T03:53:30;98693.50;;;6.34;100.00
66547;BME280;53400;50.364;14.874;2023-03-20T03:55:59;98691.81;;;6.39;100.00
66547;BME280;53400;50.364;14.874;2023-03-20T03:58:29;98693.50;;;6.34;100.00
66547;BME280;53400;50.364;14.874;2023-03-20T04:00:59;98698.22;;;6.00;100.00
66547;BME280;53400;50.364;14.874;2023-03-20T04:03:29;98688.44;;;5.94;100.00
66547;BME280;53400;50.364;14.874;2023-03-20T04:05:58;98692.91;;;6.00;100.00
66547;BME280;53400;50.364;14.874;2023-03-20T04:08:25;98694.09;;;6.04;100.00
66547;BME280;53400;50.364;14.874;2023-03-20T04:10:51;98700.75;;;6.20;100.00
66547;BME280;53400;50.364;14.874;2023-03-20T04:13:17;98702.81;;;6.18;100.00
66547;BME280;53400;50.364;14.874;2023-03-20T04:15:44;98710.28;;;6.03;100.00
66547;BME280;53400;50.364;14.874;2023-03-20T04:18:13;98712.34;;;5.87;100.00
66547;BME280;53400;50.364;14.874;2023-03-20T04:20:41;98703.81;;;5.79;100.00
66547;BME280;53400;50.364;14.874;2023-03-20T04:23:07;98699.84;;;6.01;100.00
66547;BME280;53400;50.364;14.874;2023-03-20T04:25:33;98692.66;;;6.02;100.00
66547;BME280;53400;50.364;14.874;2023-03-20T04:27:59;98702.06;;;6.04;100.00
66547;BME280;53400;50.364;14.874;2023-03-20T04:30:25;98693.25;;;6.10;100.00
66547;BME280;53400;50.364;14.874;2023-03-20T04:32:52;98703.50;;;6.07;100.00
66547;BME280;53400;50.364;14.874;2023-03-20T04:35:17;98713.56;;;5.91;100.00
66547;BME280;53400;50.364;14.874;2023-03-20T04:37:44;98710.84;;;6.05;100.00
66547;BME280;53400;50.364;14.874;2023-03-20T04:40:10;98711.81;;;6.17;100.00
66547;BME280;53400;50.364;14.874;2023-03-20T04:42:37;98713.19;;;6.26;100.00
66547;BME280;53400;50.364;14.874;2023-03-20T04:45:03;98723.09;;;6.12;100.00
66547;BME280;53400;50.364;14.874;2023-03-20T04:47:29;98718.78;;;6.18;100.00
66547;BME280;53400;50.364;14.874;2023-03-20T04:49:56;98716.13;;;6.11;100.00
66547;BME280;53400;50.364;14.874;2023-03-20T04:52:22;98718.78;;;6.18;100.00
66547;BME280;53400;50.364;14.874;2023-03-20T04:54:48;98718.69;;;6.00;100.00
66547;BME280;53400;50.364;14.874;2023-03-20T04:57:14;98714.97;;;6.01;100.00
66547;BME280;53400;50.364;14.874;2023-03-20T04:59:41;98728.28;;;6.01;100.00
66547;BME280;53400;50.364;14.874;2023-03-20T05:02:07;98737.41;;;6.11;100.00
66547;BME280;53400;50.364;14.874;2023-03-20T05:04:33;98730.94;;;6.01;100.00
66547;BME280;53400;50.364;14.874;2023-03-20T05:07:00;98728.59;;;5.72;100.00
66547;BME280;53400;50.364;14.874;2023-03-20T05:09:27;98738.75;;;5.82;100.00
66547;BME280;53400;50.364;14.874;2023-03-20T05:11:54;98735.03;;;5.90;100.00
66547;BME280;53400;50.364;14.874;2023-03-20T05:14:19;98737.16;;;5.68;100.00
66547;BME280;53400;50.364;14.874;2023-03-20T05:16:46;98739.78;;;5.74;100.00
66547;BME280;53400;50.364;14.874;2023-03-20T05:19:11;98726.34;;;5.63;100.00
66547;BME280;53400;50.364;14.874;2023-03-20T05:21:37;98740.41;;;5.77;100.00
66547;BME280;53400;50.364;14.874;2023-03-20T05:24:05;98732.22;;;5.85;100.00
66547;BME280;53400;50.364;14.874;2023-03-20T05:26:32;98734.63;;;5.86;100.00
66547;BME280;53400;50.364;14.874;2023-03-20T05:28:57;98744.25;;;5.94;100.00
66547;BME280;53400;50.364;14.874;2023-03-20T05:31:23;98739.09;;;6.06;100.00
66547;BME280;53400;50.364;14.874;2023-03-20T05:33:49;98748.88;;;6.12;100.00
66547;BME280;53400;50.364;14.874;2023-03-20T05:36:15;98751.59;;;6.37;100.00
66547;BME280;53400;50.364;14.874;2023-03-20T05:38:41;98740.56;;;6.33;100.00
66547;BME280;53400;50.364;14.874;2023-03-20T05:41:08;98749.38;;;6.59;100.00
66547;BME280;53400;50.364;14.874;2023-03-20T05:43:34;98749.50;;;6.39;100.00
66547;BME280;53400;50.364;14.874;2023-03-20T05:46:01;98748.94;;;6.37;100.00
66547;BME280;53400;50.364;14.874;2023-03-20T05:48:26;98742.44;;;6.26;100.00
66547;BME280;53400;50.364;14.874;2023-03-20T05:50:52;98756.91;;;6.37;100.00
66547;BME280;53400;50.364;14.874;2023-03-20T05:53:18;98751.22;;;6.33;100.00
66547;BME280;53400;50.364;14.874;2023-03-20T05:55:44;98757.91;;;6.42;100.00
66547;BME280;53400;50.364;14.874;2023-03-20T05:58:11;98755.09;;;6.31;100.00
66547;BME280;53400;50.364;14.874;2023-03-20T06:00:38;98757.59;;;6.57;100.00
66547;BME280;53400;50.364;14.874;2023-03-20T06:03:04;98767.56;;;6.37;100.00
66547;BME280;53400;50.364;14.874;2023-03-20T06:05:31;98771.34;;;6.16;100.00
66547;BME280;53400;50.364;14.874;2023-03-20T06:07:57;98770.16;;;6.12;100.00
66547;BME280;53400;50.364;14.874;2023-03-20T06:10:24;98769.50;;;6.16;100.00
66547;BME280;53400;50.364;14.874;2023-03-20T06:12:52;98771.50;;;6.28;100.00
66547;BME280;53400;50.364;14.874;2023-03-20T06:15:19;98770.88;;;6.26;100.00
66547;BME280;53400;50.364;14.874;2023-03-20T06:17:45;98769.72;;;6.08;100.00
66547;BME280;53400;50.364;14.874;2023-03-20T06:20:11;98777.91;;;6.13;100.00
66547;BME280;53400;50.364;14.874;2023-03-20T06:22:37;98777.00;;;6.26;100.00
66547;BME280;53400;50.364;14.874;2023-03-20T06:25:04;98782.88;;;6.73;100.00
66547;BME280;53400;50.364;14.874;2023-03-20T06:27:30;98783.97;;;6.59;100.00
66547;BME280;53400;50.364;14.874;2023-03-20T06:29:56;98781.00;;;6.49;100.00
66547;BME280;53400;50.364;14.874;2023-03-20T06:32:23;98788.13;;;6.48;100.00
66547;BME280;53400;50.364;14.874;2023-03-20T06:34:49;98789.13;;;6.54;100.00
66547;BME280;53400;50.364;14.874;2023-03-20T06:37:15;98793.44;;;6.55;100.00
66547;BME280;53400;50.364;14.874;2023-03-20T06:39:42;98792.91;;;6.71;100.00
66547;BME280;53400;50.364;14.874;2023-03-20T06:42:09;98791.78;;;6.85;100.00
66547;BME280;53400;50.364;14.874;2023-03-20T06:44:41;98796.94;;;7.05;100.00
66547;BME280;53400;50.364;14.874;2023-03-20T06:47:08;98799.34;;;7.13;100.00
66547;BME280;53400;50.364;14.874;2023-03-20T06:49:36;98799.16;;;7.33;100.00
66547;BME280;53400;50.364;14.874;2023-03-20T06:52:01;98803.63;;;7.15;100.00
66547;BME280;53400;50.364;14.874;2023-03-20T06:54:27;98798.34;;;7.08;100.00
66547;BME280;53400;50.364;14.874;2023-03-20T06:56:54;98803.53;;;7.28;100.00
66547;BME280;53400;50.364;14.874;2023-03-20T06:59:20;98795.47;;;7.34;100.00
66547;BME280;53400;50.364;14.874;2023-03-20T07:01:46;98804.66;;;7.13;100.00
66547;BME280;53400;50.364;14.874;2023-03-20T07:04:13;98799.41;;;7.07;100.00
66547;BME280;53400;50.364;14.874;2023-03-20T07:06:40;98803.19;;;7.18;100.00
66547;BME280;53400;50.364;14.874;2023-03-20T07:09:07;98798.72;;;7.11;100.00
66547;BME280;53400;50.364;14.874;2023-03-20T07:11:33;98804.00;;;7.18;100.00
66547;BME280;53400;50.364;14.874;2023-03-20T07:13:59;98802.50;;;7.04;100.00
66547;BME280;53400;50.364;14.874;2023-03-20T07:16:26;98808.47;;;7.24;100.00
66547;BME280;53400;50.364;14.874;2023-03-20T07:18:52;98803.31;;;7.48;100.00
66547;BME280;53400;50.364;14.874;2023-03-20T07:21:20;98805.69;;;7.38;100.00
66547;BME280;53400;50.364;14.874;2023-03-20T07:23:49;98810.88;;;7.69;100.00
66547;BME280;53400;50.364;14.874;2023-03-20T07:26:14;98809.19;;;7.75;100.00
66547;BME280;53400;50.364;14.874;2023-03-20T07:28:41;98815.47;;;7.62;100.00
66547;BME280;53400;50.364;14.874;2023-03-20T07:31:10;98811.56;;;7.65;100.00
66547;BME280;53400;50.364;14.874;2023-03-20T07:33:43;98821.63;;;7.63;100.00
66547;BME280;53400;50.364;14.874;2023-03-20T07:36:09;98823.47;;;7.62;100.00
66547;BME280;53400;50.364;14.874;2023-03-20T07:38:35;98830.09;;;7.34;100.00
66547;BME280;53400;50.364;14.874;2023-03-20T07:41:02;98834.78;;;7.14;100.00
66547;BME280;53400;50.364;14.874;2023-03-20T07:43:28;98825.97;;;7.57;100.00
66547;BME280;53400;50.364;14.874;2023-03-20T07:45:54;98836.78;;;7.19;100.00
66547;BME280;53400;50.364;14.874;2023-03-20T07:48:20;98837.81;;;6.93;100.00
66547;BME280;53400;50.364;14.874;2023-03-20T07:50:46;98843.34;;;6.91;100.00
66547;BME280;53400;50.364;14.874;2023-03-20T07:53:12;98837.25;;;7.09;100.00
66547;BME280;53400;50.364;14.874;2023-03-20T07:55:38;98841.13;;;7.13;100.00
66547;BME280;53400;50.364;14.874;2023-03-20T07:58:05;98832.28;;;7.19;100.00
66547;BME280;53400;50.364;14.874;2023-03-20T08:00:32;98842.66;;;7.27;100.00
66547;BME280;53400;50.364;14.874;2023-03-20T08:02:59;98833.06;;;7.45;100.00
66547;BME280;53400;50.364;14.874;2023-03-20T08:05:24;98838.03;;;7.41;100.00
66547;BME280;53400;50.364;14.874;2023-03-20T08:07:51;98827.19;;;7.61;100.00
66547;BME280;53400;50.364;14.874;2023-03-20T08:10:16;98830.44;;;7.63;100.00
66547;BME280;53400;50.364;14.874;2023-03-20T08:12:42;98825.41;;;7.73;100.00
66547;BME280;53400;50.364;14.874;2023-03-20T08:15:10;98818.81;;;7.76;100.00
66547;BME280;53400;50.364;14.874;2023-03-20T08:17:36;98816.09;;;7.64;100.00
66547;BME280;53400;50.364;14.874;2023-03-20T08:20:02;98821.06;;;7.35;100.00
66547;BME280;53400;50.364;14.874;2023-03-20T08:22:28;98808.22;;;7.69;100.00
66547;BME280;53400;50.364;14.874;2023-03-20T08:24:54;98805.06;;;7.35;100.00
66547;BME280;53400;50.364;14.874;2023-03-20T08:27:21;98812.53;;;7.52;100.00
66547;BME280;53400;50.364;14.874;2023-03-20T08:29:46;98826.75;;;7.64;100.00
66547;BME280;53400;50.364;14.874;2023-03-20T08:32:14;98824.59;;;7.29;100.00
66547;BME280;53400;50.364;14.874;2023-03-20T08:34:40;98824.38;;;7.06;100.00
66547;BME280;53400;50.364;14.874;2023-03-20T08:37:06;98834.59;;;7.09;100.00
66547;BME280;53400;50.364;14.874;2023-03-20T08:39:32;98831.94;;;7.09;100.00
66547;BME280;53400;50.364;14.874;2023-03-20T08:41:59;98848.56;;;7.29;100.00
66547;BME280;53400;50.364;14.874;2023-03-20T08:44:25;98845.75;;;7.49;100.00
66547;BME280;53400;50.364;14.874;2023-03-20T08:46:51;98842.72;;;7.46;100.00
66547;BME280;53400;50.364;14.874;2023-03-20T08:49:20;98841.56;;;7.35;100.00
66547;BME280;53400;50.364;14.874;2023-03-20T08:51:46;98844.66;;;7.32;100.00
66547;BME280;53400;50.364;14.874;2023-03-20T08:54:12;98846.31;;;7.51;100.00
66547;BME280;53400;50.364;14.874;2023-03-20T08:56:40;98854.31;;;7.51;100.00
66547;BME280;53400;50.364;14.874;2023-03-20T08:59:06;98846.41;;;7.63;100.00
66547;BME280;53400;50.364;14.874;2023-03-20T09:01:32;98854.31;;;8.13;100.00
66547;BME280;53400;50.364;14.874;2023-03-20T09:03:58;98862.66;;;8.35;100.00
66547;BME280;53400;50.364;14.874;2023-03-20T09:06:25;98854.81;;;8.22;100.00
66547;BME280;53400;50.364;14.874;2023-03-20T09:08:53;98856.59;;;8.46;100.00
66547;BME280;53400;50.364;14.874;2023-03-20T09:11:19;98855.47;;;8.54;100.00
66547;BME280;53400;50.364;14.874;2023-03-20T09:13:44;98850.47;;;8.58;100.00
66547;BME280;53400;50.364;14.874;2023-03-20T09:16:10;98847.94;;;8.93;100.00
66547;BME280;53400;50.364;14.874;2023-03-20T09:18:36;98846.63;;;8.84;100.00
66547;BME280;53400;50.364;14.874;2023-03-20T09:21:02;98840.03;;;8.86;100.00
66547;BME280;53400;50.364;14.874;2023-03-20T09:23:29;98842.88;;;8.73;100.00
66547;BME280;53400;50.364;14.874;2023-03-20T09:25:56;98837.41;;;8.68;100.00
66547;BME280;53400;50.364;14.874;2023-03-20T09:28:22;98833.03;;;8.85;100.00
66547;BME280;53400;50.364;14.874;2023-03-20T09:30:48;98835.16;;;9.07;100.00
66547;BME280;53400;50.364;14.874;2023-03-20T09:33:14;98841.94;;;9.21;100.00
66547;BME280;53400;50.364;14.874;2023-03-20T09:35:40;98842.03;;;9.03;100.00
66547;BME280;53400;50.364;14.874;2023-03-20T09:38:06;98834.97;;;9.08;100.00
66547;BME280;53400;50.364;14.874;2023-03-20T09:40:39;98836.63;;;9.33;100.00
66547;BME280;53400;50.364;14.874;2023-03-20T09:43:16;98831.84;;;9.58;100.00
66547;BME280;53400;50.364;14.874;2023-03-20T09:45:49;98831.50;;;9.67;100.00
66547;BME280;53400;50.364;14.874;2023-03-20T09:48:23;98831.06;;;10.22;100.00
66547;BME280;53400;50.364;14.874;2023-03-20T09:50:57;98835.59;;;10.62;100.00
66547;BME280;53400;50.364;14.874;2023-03-20T09:53:29;98832.63;;;10.75;100.00
66547;BME280;53400;50.364;14.874;2023-03-20T09:55:59;98832.91;;;10.90;100.00
66547;BME280;53400;50.364;14.874;2023-03-20T09:58:26;98825.19;;;11.11;100.00
66547;BME280;53400;50.364;14.874;2023-03-20T10:00:57;98827.88;;;11.28;100.00
66547;BME280;53400;50.364;14.874;2023-03-20T10:03:27;98828.03;;;11.38;98.31
66547;BME280;53400;50.364;14.874;2023-03-20T10:05:58;98827.22;;;11.37;100.00
66547;BME280;53400;50.364;14.874;2023-03-20T10:08:28;98826.81;;;11.29;99.80
66547;BME280;53400;50.364;14.874;2023-03-20T10:11:05;98829.31;;;11.52;98.31
66547;BME280;53400;50.364;14.874;2023-03-20T10:13:49;98823.84;;;11.81;96.42
66547;BME280;53400;50.364;14.874;2023-03-20T10:16:30;98829.66;;;12.38;95.31
66547;BME280;53400;50.364;14.874;2023-03-20T10:19:03;98828.78;;;12.55;92.79
66547;BME280;53400;50.364;14.874;2023-03-20T10:21:37;98823.78;;;12.42;94.77
66547;BME280;53400;50.364;14.874;2023-03-20T10:24:05;98816.59;;;12.74;92.96
66547;BME280;53400;50.364;14.874;2023-03-20T10:26:37;98808.44;;;12.91;89.40
66547;BME280;53400;50.364;14.874;2023-03-20T10:29:06;98810.28;;;13.18;89.75
66547;BME280;53400;50.364;14.874;2023-03-20T10:31:42;98809.69;;;12.83;90.59
66547;BME280;53400;50.364;14.874;2023-03-20T10:34:23;98804.31;;;12.78;92.20
66547;BME280;53400;50.364;14.874;2023-03-20T10:37:00;98809.19;;;12.86;91.88
66547;BME280;53400;50.364;14.874;2023-03-20T10:39:40;98801.25;;;12.97;93.18
66547;BME280;53400;50.364;14.874;2023-03-20T10:42:17;98801.53;;;13.32;92.43
66547;BME280;53400;50.364;14.874;2023-03-20T10:44:47;98802.22;;;13.55;89.61
66547;BME280;53400;50.364;14.874;2023-03-20T10:47:17;98802.41;;;13.43;87.67
66547;BME280;53400;50.364;14.874;2023-03-20T10:49:46;98801.66;;;13.53;87.93
66547;BME280;53400;50.364;14.874;2023-03-20T10:52:16;98799.22;;;13.99;89.02
66547;BME280;53400;50.364;14.874;2023-03-20T10:54:47;98802.25;;;14.13;88.91
66547;BME280;53400;50.364;14.874;2023-03-20T10:57:20;98798.81;;;14.28;83.51
66547;BME280;53400;50.364;14.874;2023-03-20T10:59:49;98802.91;;;14.51;84.92
66547;BME280;53400;50.364;14.874;2023-03-20T11:02:18;98799.63;;;14.38;81.61
66547;BME280;53400;50.364;14.874;2023-03-20T11:04:45;98805.53;;;14.25;84.79
66547;BME280;53400;50.364;14.874;2023-03-20T11:07:18;98796.91;;;14.33;82.73
66547;BME280;53400;50.364;14.874;2023-03-20T11:10:08;98796.22;;;14.58;81.46
66547;BME280;53400;50.364;14.874;2023-03-20T11:12:42;98792.47;;;14.64;81.83
66547;BME280;53400;50.364;14.874;2023-03-20T11:15:22;98789.50;;;14.76;79.71
66547;BME280;53400;50.364;14.874;2023-03-20T11:17:53;98784.94;;;15.12;78.04
66547;BME280;53400;50.364;14.874;2023-03-20T11:20:19;98787.09;;;15.31;75.98
66547;BME280;53400;50.364;14.874;2023-03-20T11:22:46;98786.25;;;14.64;77.29
66547;BME280;53400;50.364;14.874;2023-03-20T11:25:22;98792.19;;;14.61;76.26
66547;BME280;53400;50.364;14.874;2023-03-20T11:27:53;98786.00;;;14.81;74.49
66547;BME280;53400;50.364;14.874;2023-03-20T11:30:19;98769.81;;;14.96;73.46
66547;BME280;53400;50.364;14.874;2023-03-20T11:32:46;98784.94;;;15.02;77.41
66547;BME280;53400;50.364;14.874;2023-03-20T11:35:18;98776.56;;;15.19;73.58
66547;BME280;53400;50.364;14.874;2023-03-20T11:37:46;98777.38;;;14.89;72.56
66547;BME280;53400;50.364;14.874;2023-03-20T11:40:14;98774.94;;;14.87;71.77
66547;BME280;53400;50.364;14.874;2023-03-20T11:42:52;98775.22;;;15.22;71.48
66547;BME280;53400;50.364;14.874;2023-03-20T11:45:18;98768.72;;;14.66;73.41
66547;BME280;53400;50.364;14.874;2023-03-20T11:47:48;98767.53;;;14.21;74.44
66547;BME280;53400;50.364;14.874;2023-03-20T11:50:25;98766.19;;;14.19;72.61
66547;BME280;53400;50.364;14.874;2023-03-20T11:52:52;98758.94;;;14.35;73.64
66547;BME280;53400;50.364;14.874;2023-03-20T11:55:25;98760.84;;;14.44;73.13
66547;BME280;53400;50.364;14.874;2023-03-20T11:57:57;98749.25;;;14.34;73.50
66547;BME280;53400;50.364;14.874;2023-03-20T12:00:25;98745.47;;;14.25;73.80
66547;BME280;53400;50.364;14.874;2023-03-20T12:02:51;98754.84;;;14.17;74.69
66547;BME280;53400;50.364;14.874;2023-03-20T12:05:29;98752.47;;;14.26;73.79
66547;BME280;53400;50.364;14.874;2023-03-20T12:07:57;98753.25;;;14.21;73.31
66547;BME280;53400;50.364;14.874;2023-03-20T12:10:28;98743.75;;;13.98;75.58
66547;BME280;53400;50.364;14.874;2023-03-20T12:12:59;98742.22;;;14.28;74.05
66547;BME280;53400;50.364;14.874;2023-03-20T12:15:30;98738.41;;;14.13;76.31
66547;BME280;53400;50.364;14.874;2023-03-20T12:18:00;98728.75;;;14.33;73.29
66547;BME280;53400;50.364;14.874;2023-03-20T12:20:33;98726.94;;;14.54;75.36
66547;BME280;53400;50.364;14.874;2023-03-20T12:23:09;98721.50;;;14.38;75.22
66547;BME280;53400;50.364;14.874;2023-03-20T12:25:41;98720.13;;;14.20;74.34
66547;BME280;53400;50.364;14.874;2023-03-20T12:28:16;98721.78;;;14.37;74.27
66547;BME280;53400;50.364;14.874;2023-03-20T12:30:52;98712.34;;;14.34;76.52
66547;BME280;53400;50.364;14.874;2023-03-20T12:33:29;98710.75;;;14.54;72.28
66547;BME280;53400;50.364;14.874;2023-03-20T12:35:57;98708.31;;;14.37;70.16
66547;BME280;53400;50.364;14.874;2023-03-20T12:38:26;98705.38;;;14.54;72.30
66547;BME280;53400;50.364;14.874;2023-03-20T12:40:55;98704.75;;;14.21;71.76
66547;BME280;53400;50.364;14.874;2023-03-20T12:43:28;98697.53;;;14.47;72.20
66547;BME280;53400;50.364;14.874;2023-03-20T12:46:05;98698.59;;;14.41;73.50
66547;BME280;53400;50.364;14.874;2023-03-20T12:48:45;98700.22;;;14.32;74.54
66547;BME280;53400;50.364;14.874;2023-03-20T12:51:21;98699.19;;;14.53;69.63
66547;BME280;53400;50.364;14.874;2023-03-20T12:54:01;98699.66;;;14.35;72.15
66547;BME280;53400;50.364;14.874;2023-03-20T12:56:44;98705.34;;;14.38;72.75
66547;BME280;53400;50.364;14.874;2023-03-20T12:59:21;98706.63;;;14.10;74.44
66547;BME280;53400;50.364;14.874;2023-03-20T13:01:51;98697.22;;;14.18;73.28
66547;BME280;53400;50.364;14.874;2023-03-20T13:04:39;98692.06;;;13.91;75.74